createdAt,value
2022-12-11T00:00:53.209Z,13.02
2022-12-11T00:03:55.039Z,12.25
2022-12-11T00:06:56.881Z,12.98
2022-12-11T00:09:58.873Z,13.75
2022-12-11T00:13:00.649Z,12.63
2022-12-11T00:16:02.461Z,13.23
2022-12-11T00:19:04.497Z,14.05
2022-12-11T00:22:06.316Z,17.23
2022-12-11T00:25:09.083Z,13.75
2022-12-11T00:28:17.466Z,13.88
2022-12-11T00:31:20.635Z,14.00
2022-12-11T00:34:22.588Z,15.73
2022-12-11T00:37:24.693Z,14.23
2022-12-11T00:40:26.564Z,15.02
2022-12-11T00:43:28.462Z,14.98
2022-12-11T00:46:30.299Z,16.20
2022-12-11T00:49:32.169Z,14.90
2022-12-11T00:52:34.914Z,16.35
2022-12-11T00:55:41.271Z,15.27
2022-12-11T00:58:43.056Z,18.67
2022-12-11T01:01:44.935Z,15.85
2022-12-11T01:04:46.810Z,18.27
2022-12-11T01:07:48.609Z,18.45
2022-12-11T01:10:50.411Z,17.95
2022-12-11T01:13:52.202Z,18.90
2022-12-11T01:16:54.048Z,21.42
2022-12-11T01:19:56.030Z,18.83
2022-12-11T01:23:00.710Z,21.93
2022-12-11T01:26:07.942Z,22.83
2022-12-11T01:29:09.685Z,21.02
2022-12-11T01:32:11.460Z,23.02
2022-12-11T01:35:13.911Z,22.98
2022-12-11T01:38:15.736Z,23.48
2022-12-11T01:41:18.928Z,29.17
2022-12-11T01:44:21.274Z,27.75
2022-12-11T01:47:23.064Z,24.60
2022-12-11T01:50:25.322Z,29.35
2022-12-11T01:53:34.949Z,25.27
2022-12-11T01:56:40.032Z,25.23
2022-12-11T01:59:46.330Z,25.00
2022-12-11T02:02:49.260Z,24.63
2022-12-11T02:08:52.938Z,19.73
2022-12-11T02:12:15.831Z,22.60
2022-12-11T02:15:40.127Z,21.92
2022-12-11T02:19:00.563Z,23.95
2022-12-11T02:22:06.954Z,21.85
2022-12-11T02:25:22.267Z,25.38
2022-12-11T02:28:43.317Z,25.05
2022-12-11T02:31:56.345Z,24.98
2022-12-11T02:38:27.218Z,22.42
2022-12-11T02:41:31.184Z,23.48
2022-12-11T02:44:35.487Z,26.27
2022-12-11T02:47:38.047Z,22.50
2022-12-11T02:50:46.717Z,23.70
2022-12-11T02:53:51.656Z,27.95
2022-12-11T02:57:05.015Z,24.35
2022-12-11T03:00:09.147Z,24.45
2022-12-11T03:03:11.358Z,26.88
2022-12-11T03:06:18.422Z,23.60
2022-12-11T03:09:21.300Z,24.92
2022-12-11T03:15:37.047Z,24.80
2022-12-11T03:18:48.005Z,24.85
2022-12-11T03:21:55.342Z,24.23
2022-12-11T03:25:05.910Z,27.35
2022-12-11T03:28:14.184Z,27.63
2022-12-11T03:31:24.291Z,24.73
2022-12-11T03:35:16.082Z,24.33
2022-12-11T03:38:31.339Z,24.63
2022-12-11T03:41:36.009Z,21.17
2022-12-11T03:44:38.001Z,21.85
2022-12-11T03:47:41.443Z,20.50
2022-12-11T03:50:43.970Z,23.05
2022-12-11T03:53:47.536Z,22.52
2022-12-11T03:56:54.064Z,19.15
2022-12-11T03:59:57.157Z,18.63
2022-12-11T04:03:14.804Z,19.85
2022-12-11T04:06:16.755Z,18.85
2022-12-11T04:09:18.678Z,19.25
2022-12-11T04:12:20.570Z,21.17
2022-12-11T04:15:22.449Z,20.63
2022-12-11T04:18:42.748Z,21.38
2022-12-11T04:22:03.191Z,20.90
2022-12-11T04:25:08.056Z,19.63
2022-12-11T04:28:10.090Z,19.73
2022-12-11T04:31:21.139Z,22.02
2022-12-11T04:34:23.021Z,20.90
2022-12-11T04:37:25.022Z,22.15
2022-12-11T04:40:27.165Z,19.53
2022-12-11T04:43:29.351Z,19.70
2022-12-11T04:46:31.566Z,20.00
2022-12-11T04:49:33.365Z,19.33
2022-12-11T04:52:35.139Z,20.10
2022-12-11T04:55:36.915Z,18.30
2022-12-11T04:58:39.715Z,17.90
2022-12-11T05:01:41.588Z,17.92
2022-12-11T05:04:43.742Z,17.13
2022-12-11T05:07:45.634Z,15.65
2022-12-11T05:10:58.246Z,16.03
2022-12-11T05:14:00.530Z,13.25
2022-12-11T05:17:02.317Z,13.07
2022-12-11T05:20:04.414Z,11.25
2022-12-11T05:23:06.203Z,11.45
2022-12-11T05:26:12.979Z,11.10
2022-12-11T05:29:14.823Z,11.88
2022-12-11T05:32:16.623Z,10.73
2022-12-11T05:35:18.653Z,10.77
2022-12-11T05:38:20.799Z,11.47
2022-12-11T05:41:24.897Z,11.52
2022-12-11T05:44:27.159Z,10.82
2022-12-11T05:47:29.019Z,10.32
2022-12-11T05:50:30.811Z,10.63
2022-12-11T05:53:33.207Z,10.10
2022-12-11T05:56:36.599Z,10.63
2022-12-11T05:59:38.790Z,10.90
2022-12-11T06:02:40.694Z,11.27
2022-12-11T06:05:43.163Z,11.70
2022-12-11T06:08:44.898Z,12.50
2022-12-11T06:11:46.706Z,13.65
2022-12-11T06:14:48.573Z,13.00
2022-12-11T06:17:50.318Z,13.38
2022-12-11T06:20:52.089Z,14.02
2022-12-11T06:23:56.005Z,16.10
2022-12-11T06:26:58.353Z,16.55
2022-12-11T06:30:00.139Z,16.77
2022-12-11T06:33:02.124Z,18.83
2022-12-11T06:36:06.059Z,19.40
2022-12-11T06:39:08.442Z,20.67
2022-12-11T06:42:10.320Z,22.15
2022-12-11T06:45:12.536Z,19.98
2022-12-11T06:48:14.590Z,20.95
2022-12-11T06:51:19.531Z,21.45
2022-12-11T06:54:25.376Z,20.00
2022-12-11T06:57:27.179Z,19.98
2022-12-11T07:00:29.049Z,19.05
2022-12-11T07:03:31.563Z,19.10
2022-12-11T07:06:33.548Z,19.38
2022-12-11T07:09:37.374Z,19.63
2022-12-11T07:12:39.795Z,19.23
2022-12-11T07:15:42.889Z,17.80
2022-12-11T07:18:49.513Z,17.35
2022-12-11T07:21:51.452Z,18.60
2022-12-11T07:24:53.359Z,18.87
2022-12-11T07:27:55.213Z,19.80
2022-12-11T07:30:57.032Z,21.58
2022-12-11T07:34:02.031Z,21.83
2022-12-11T07:37:04.079Z,23.70
2022-12-11T07:40:06.559Z,24.03
2022-12-11T07:43:08.357Z,22.70
2022-12-11T07:46:18.537Z,22.23
2022-12-11T07:49:20.497Z,22.15
2022-12-11T07:52:22.342Z,22.63
2022-12-11T07:55:24.136Z,22.55
2022-12-11T07:58:25.947Z,23.75
2022-12-11T08:01:30.002Z,23.75
2022-12-11T08:04:31.771Z,22.08
2022-12-11T08:07:36.538Z,22.80
2022-12-11T08:10:38.362Z,22.23
2022-12-11T08:13:42.683Z,23.65
2022-12-11T08:16:44.832Z,24.10
2022-12-11T08:19:46.750Z,24.73
2022-12-11T08:22:52.336Z,23.98
2022-12-11T08:25:56.480Z,23.75
2022-12-11T08:29:01.423Z,23.98
2022-12-11T08:32:06.391Z,24.08
2022-12-11T08:35:12.599Z,22.10
2022-12-11T08:38:15.440Z,23.85
2022-12-11T08:41:20.323Z,24.00
2022-12-11T08:44:24.981Z,22.70
2022-12-11T08:47:27.431Z,21.95
2022-12-11T08:50:29.457Z,22.73
2022-12-11T08:53:32.190Z,21.40
2022-12-11T08:56:34.093Z,22.75
2022-12-11T08:59:35.970Z,20.17
2022-12-11T12:18:02.431Z,15.07
2022-12-11T12:21:31.160Z,16.80
2022-12-11T12:24:48.811Z,16.00
2022-12-11T12:27:57.851Z,15.52
2022-12-11T12:31:42.446Z,15.18
2022-12-11T12:35:02.945Z,13.50
2022-12-11T12:38:33.742Z,14.00
2022-12-11T12:41:55.277Z,12.55
2022-12-11T12:45:10.499Z,12.32
2022-12-11T12:48:13.600Z,13.15
2022-12-11T12:54:20.108Z,11.40
2022-12-11T12:57:22.092Z,10.82
2022-12-11T13:00:36.112Z,11.30
2022-12-11T13:04:02.119Z,11.05
2022-12-11T13:07:35.610Z,11.35
2022-12-11T13:13:43.817Z,10.35
2022-12-11T13:16:49.079Z,10.93
2022-12-11T13:20:09.536Z,11.27
2022-12-11T13:23:26.037Z,9.88
2022-12-11T13:26:33.374Z,11.23
2022-12-11T13:29:35.314Z,10.77
2022-12-11T13:32:37.285Z,9.67
2022-12-11T13:35:39.375Z,10.07
2022-12-11T13:38:52.005Z,10.90
2022-12-11T13:42:04.667Z,14.32
2022-12-11T13:45:08.259Z,10.45
2022-12-11T13:48:21.483Z,14.65
2022-12-11T13:54:29.051Z,12.40
2022-12-11T13:57:30.947Z,9.70
2022-12-11T14:00:33.129Z,9.20
2022-12-11T14:03:35.927Z,9.25
2022-12-11T14:06:39.861Z,11.77
2022-12-11T14:09:45.853Z,11.20
2022-12-11T14:12:56.622Z,8.32
2022-12-11T14:15:58.680Z,8.88
2022-12-11T14:19:07.538Z,19.60
2022-12-11T14:22:19.369Z,21.30
2022-12-11T14:25:27.053Z,40.97
2022-12-11T14:28:36.785Z,74.85
2022-12-11T14:31:43.544Z,49.05
2022-12-11T14:34:47.556Z,49.47
2022-12-11T14:37:49.677Z,18.63
2022-12-11T14:40:56.443Z,10.25
2022-12-11T14:44:02.452Z,39.90
2022-12-11T14:47:13.927Z,19.50
2022-12-11T14:50:24.234Z,20.98
2022-12-11T14:53:35.716Z,11.05
2022-12-11T14:56:38.639Z,10.45
2022-12-11T14:59:46.894Z,22.52
2022-12-11T15:03:01.775Z,16.35
2022-12-11T15:06:24.133Z,10.95
2022-12-11T15:09:36.502Z,13.87
2022-12-11T15:12:44.629Z,10.25
2022-12-11T15:15:47.811Z,8.98
2022-12-11T15:18:52.277Z,9.80
2022-12-11T15:21:55.414Z,11.98
2022-12-11T15:24:59.262Z,15.85
2022-12-11T15:28:02.053Z,11.85
2022-12-11T15:31:36.427Z,24.33
2022-12-11T15:34:47.192Z,13.93
2022-12-11T15:37:54.153Z,17.25
2022-12-11T15:40:56.613Z,12.13
2022-12-11T15:44:02.014Z,27.83
2022-12-11T15:47:15.561Z,27.35
2022-12-11T15:50:26.035Z,29.08
2022-12-11T15:53:27.842Z,17.58
2022-12-11T15:56:30.143Z,18.85
2022-12-11T15:59:33.148Z,20.90
2022-12-11T16:02:34.997Z,12.50
2022-12-11T16:05:36.869Z,30.13
2022-12-11T16:08:38.723Z,16.10
2022-12-11T16:11:40.636Z,12.15
2022-12-11T16:14:43.948Z,19.80
2022-12-11T16:17:46.994Z,23.33
2022-12-11T16:20:50.038Z,10.65
2022-12-11T16:23:52.247Z,14.85
2022-12-11T16:26:54.419Z,12.82
2022-12-11T16:29:56.335Z,17.50
2022-12-11T16:32:58.878Z,15.23
2022-12-11T16:36:00.713Z,14.20
2022-12-11T16:39:02.667Z,16.85
2022-12-11T16:42:05.909Z,18.53
2022-12-11T16:45:12.743Z,17.77
2022-12-11T16:48:17.376Z,18.70
2022-12-11T16:51:19.319Z,15.88
2022-12-11T16:54:21.211Z,12.50
2022-12-11T16:57:23.123Z,12.73
2022-12-11T17:00:25.940Z,17.83
2022-12-11T17:03:32.010Z,11.93
2022-12-11T17:06:34.227Z,14.10
2022-12-11T17:09:42.288Z,10.55
2022-12-11T17:12:44.183Z,11.77
2022-12-11T17:15:46.160Z,10.43
2022-12-11T17:18:48.443Z,11.43
2022-12-11T17:21:51.856Z,14.80
2022-12-11T17:24:54.044Z,14.00
2022-12-11T17:27:55.887Z,12.97
2022-12-11T17:30:58.748Z,14.40
2022-12-11T17:37:05.952Z,12.55
2022-12-11T17:40:08.318Z,11.70
2022-12-11T17:43:12.025Z,9.20
2022-12-11T17:46:14.587Z,9.43
2022-12-11T17:49:16.504Z,10.68
2022-12-11T17:52:18.441Z,10.50
2022-12-11T17:55:20.391Z,10.68
2022-12-11T17:58:23.627Z,10.35
2022-12-11T18:01:25.577Z,13.38
2022-12-11T18:04:27.498Z,20.37
2022-12-11T18:07:29.339Z,34.17
2022-12-11T18:10:31.207Z,20.08
2022-12-11T18:13:33.179Z,22.88
2022-12-11T18:16:38.146Z,34.93
2022-12-11T18:19:45.906Z,30.10
2022-12-11T18:22:48.101Z,36.70
2022-12-11T18:25:49.927Z,22.63
2022-12-11T18:28:53.042Z,25.30
2022-12-11T18:31:55.926Z,45.20
2022-12-11T18:37:59.712Z,24.88
2022-12-11T18:41:09.536Z,26.10
2022-12-11T18:44:11.494Z,23.83
2022-12-11T18:47:13.320Z,25.40
2022-12-11T18:50:15.578Z,22.98
2022-12-11T18:53:18.481Z,18.75
2022-12-11T18:59:25.142Z,18.73
2022-12-11T19:02:26.968Z,22.17
2022-12-11T19:05:29.411Z,21.95
2022-12-11T19:08:31.601Z,16.70
2022-12-11T19:11:39.099Z,21.08
2022-12-11T19:14:40.993Z,19.05
2022-12-11T19:17:43.411Z,20.77
2022-12-11T19:20:52.354Z,23.30
2022-12-11T19:23:59.894Z,35.90
2022-12-11T19:27:01.980Z,21.43
2022-12-11T19:30:04.587Z,33.30
2022-12-11T19:33:06.427Z,18.67
2022-12-11T19:36:12.312Z,28.23
2022-12-11T19:39:17.131Z,22.30
2022-12-11T19:42:19.024Z,36.70
2022-12-11T19:45:20.935Z,19.85
2022-12-11T19:48:22.845Z,17.67
2022-12-11T19:51:38.615Z,20.33
2022-12-11T19:54:40.581Z,18.10
2022-12-11T19:57:42.624Z,18.52
2022-12-11T20:00:45.013Z,25.03
2022-12-11T20:03:47.299Z,36.65
2022-12-11T20:06:49.246Z,25.98
2022-12-11T20:09:52.212Z,20.27
2022-12-11T20:12:56.750Z,16.48
2022-12-11T20:16:00.329Z,20.50
2022-12-11T20:19:02.273Z,21.02
2022-12-11T20:22:05.139Z,22.63
2022-12-11T20:28:09.912Z,19.75
2022-12-11T20:31:20.005Z,22.13
2022-12-11T20:37:29.027Z,15.80
2022-12-11T20:40:30.875Z,15.13
2022-12-11T20:43:35.033Z,20.90
2022-12-11T20:46:38.078Z,16.85
2022-12-11T20:49:40.548Z,16.42
2022-12-11T20:52:42.492Z,21.00
2022-12-11T20:55:47.492Z,20.60
2022-12-11T20:58:49.564Z,21.00
2022-12-11T21:01:52.143Z,19.53
2022-12-11T21:04:53.956Z,15.65
2022-12-11T21:07:56.212Z,17.42
2022-12-11T21:10:58.101Z,17.15
2022-12-11T21:13:59.984Z,20.48
2022-12-11T21:17:01.915Z,21.80
2022-12-11T21:20:04.671Z,16.45
2022-12-11T21:23:06.572Z,17.02
2022-12-11T21:26:09.200Z,20.95
2022-12-11T21:29:11.147Z,25.85
2022-12-11T21:32:13.842Z,16.88
2022-12-11T21:35:15.711Z,15.52
2022-12-11T21:38:17.562Z,13.13
2022-12-11T21:41:21.872Z,13.23
2022-12-11T21:47:46.302Z,13.43
2022-12-11T21:50:48.192Z,12.48
2022-12-11T21:53:50.857Z,13.52
2022-12-11T21:56:54.232Z,15.07
2022-12-11T21:59:56.270Z,14.57
2022-12-11T22:02:58.110Z,15.70
2022-12-11T22:05:59.920Z,15.35
2022-12-11T22:09:02.322Z,22.00
2022-12-11T22:15:07.527Z,21.50
2022-12-11T22:18:09.375Z,18.30
2022-12-11T22:21:11.639Z,17.20
2022-12-11T22:24:14.199Z,14.13
2022-12-11T22:27:21.969Z,14.15
2022-12-11T22:30:25.512Z,14.70
2022-12-11T22:33:27.543Z,14.48
2022-12-11T22:36:29.525Z,24.67
2022-12-11T22:39:31.329Z,17.33
2022-12-11T22:42:33.627Z,15.82
2022-12-11T22:45:39.336Z,18.35
2022-12-11T22:48:41.375Z,17.85
2022-12-11T22:51:43.165Z,14.05
2022-12-11T22:54:45.224Z,17.08
2022-12-11T22:57:47.175Z,14.00
2022-12-11T23:00:49.450Z,13.77
2022-12-11T23:03:51.680Z,17.77
2022-12-11T23:06:53.631Z,23.10
2022-12-11T23:09:55.949Z,15.23
2022-12-11T23:12:57.756Z,17.23
2022-12-11T23:15:59.566Z,13.70
2022-12-11T23:19:01.496Z,20.20
2022-12-11T23:22:03.906Z,16.33
2022-12-11T23:25:06.240Z,14.10
2022-12-11T23:28:08.135Z,19.50
2022-12-11T23:31:10.280Z,17.77
2022-12-11T23:34:12.226Z,13.32
2022-12-11T23:37:14.092Z,14.98
2022-12-11T23:40:16.046Z,12.85
2022-12-11T23:43:17.964Z,17.65
2022-12-11T23:46:23.527Z,16.77
2022-12-11T23:49:25.495Z,14.63
2022-12-11T23:52:27.358Z,17.45
2022-12-11T23:55:29.595Z,15.27
2022-12-11T23:58:31.466Z,13.88
